Time;durP1;ratioP1;P1;durP2;ratioP2;P2;SDS_P1;SDS_P2;PMS_P1;PMS_P2;Temp;Humidity;BMP_temperature;BMP_pressure;BME280_temperature;BME280_humidity;BME280_pressure;Samples;Min_cycle;Max_cycle;Signal;HPM_P1;HPM_P2
2022/05/21 00:00:29;;;;;;;14.45;5.97;;;;;;;;;;5002901;28;20053;-83
2022/05/21 00:02:56;;;;;;;10.52;5.93;;;;;;;;;;5019787;28;20033;-82
2022/05/21 00:05:23;;;;;;;11.63;5.97;;;;;;;;;;5019274;28;20045;-81
2022/05/21 00:07:50;;;;;;;11.52;6.20;;;;;;;;;;5018288;28;20436;-83
2022/05/21 00:10:17;;;;;;;7.55;5.43;;;;;;;;;;5017658;28;20045;-82
2022/05/21 00:12:44;;;;;;;16.23;6.70;;;;;;;;;;5022703;28;20053;-83
2022/05/21 00:15:11;;;;;;;12.27;5.97;;;;;;;;;;5019609;28;20072;-79
2022/05/21 00:17:37;;;;;;;13.25;7.25;;;;;;;;;;5021235;28;20045;-81
2022/05/21 00:20:07;;;;;;;13.10;6.47;;;;;;;;;;5001906;28;20096;-81
2022/05/21 00:22:33;;;;;;;8.93;6.18;;;;;;;;;;5021324;28;20037;-79
2022/05/21 00:24:59;;;;;;;16.52;7.13;;;;;;;;;;5019155;28;20042;-78
2022/05/21 00:27:25;;;;;;;12.27;6.65;;;;;;;;;;5001852;28;20037;-81
2022/05/21 00:29:51;;;;;;;12.68;7.07;;;;;;;;;;5019209;28;20111;-79
2022/05/21 00:32:17;;;;;;;13.90;7.75;;;;;;;;;;5004949;28;20048;-81
2022/05/21 00:34:43;;;;;;;12.25;7.13;;;;;;;;;;5001943;28;21306;-82
2022/05/21 00:37:09;;;;;;;15.82;7.93;;;;;;;;;;5012486;28;20099;-80
2022/05/21 00:39:39;;;;;;;11.13;7.10;;;;;;;;;;5037225;28;20018;-79
2022/05/21 00:42:08;;;;;;;10.63;7.35;;;;;;;;;;5034788;28;20063;-77
2022/05/21 00:44:34;;;;;;;12.13;7.28;;;;;;;;;;5029811;28;20080;-81
2022/05/21 00:47:00;;;;;;;15.90;7.75;;;;;;;;;;5025733;28;20464;-82
2022/05/21 00:49:29;;;;;;;16.05;7.80;;;;;;;;;;5020932;28;20045;-83
2022/05/21 00:51:58;;;;;;;15.90;8.07;;;;;;;;;;5018566;28;20046;-82
2022/05/21 00:54:35;;;;;;;17.63;8.35;;;;;;;;;;5020964;28;20037;-84
2022/05/21 00:57:07;;;;;;;12.18;8.07;;;;;;;;;;5018739;28;20046;-81
2022/05/21 00:59:50;;;;;;;15.93;8.60;;;;;;;;;;5021362;28;20060;-81
2022/05/21 01:02:21;;;;;;;16.63;8.45;;;;;;;;;;5018124;28;21852;-83
2022/05/21 01:04:48;;;;;;;16.00;9.32;;;;;;;;;;5020696;28;20041;-83
2022/05/21 01:07:15;;;;;;;21.02;11.35;;;;;;;;;;5017702;28;20040;-82
2022/05/21 01:09:44;;;;;;;17.50;11.23;;;;;;;;;;5017993;28;20511;-81
2022/05/21 01:12:10;;;;;;;19.38;11.13;;;;;;;;;;5018848;28;20084;-80
2022/05/21 01:14:37;;;;;;;19.23;10.77;;;;;;;;;;5016206;28;20042;-82
2022/05/21 01:17:04;;;;;;;19.42;12.20;;;;;;;;;;5021455;28;20041;-82
2022/05/21 01:19:30;;;;;;;22.23;12.88;;;;;;;;;;5019621;28;20025;-81
2022/05/21 01:21:56;;;;;;;24.75;13.73;;;;;;;;;;5019738;28;20094;-82
2022/05/21 01:24:22;;;;;;;18.42;12.50;;;;;;;;;;5018112;28;20456;-78
2022/05/21 01:26:49;;;;;;;25.45;13.43;;;;;;;;;;5017633;28;20059;-81
2022/05/21 01:29:25;;;;;;;22.50;13.98;;;;;;;;;;4999617;28;20049;-83
2022/05/21 01:31:52;;;;;;;28.52;15.13;;;;;;;;;;5018312;28;20045;-82
2022/05/21 01:34:19;;;;;;;27.25;15.10;;;;;;;;;;5018941;28;20054;-83
2022/05/21 01:36:46;;;;;;;30.17;16.40;;;;;;;;;;5016490;28;20529;-83
2022/05/21 01:39:12;;;;;;;30.85;15.95;;;;;;;;;;5003052;28;20037;-80
2022/05/21 01:41:41;;;;;;;23.98;16.17;;;;;;;;;;5017704;28;20214;-79
2022/05/21 01:46:52;;;;;;;30.20;17.90;;;;;;;;;;5019824;28;20095;-79
2022/05/21 01:49:18;;;;;;;31.92;19.52;;;;;;;;;;4999138;28;20073;-80
2022/05/21 01:51:45;;;;;;;28.67;18.85;;;;;;;;;;5001984;28;20064;-82
2022/05/21 01:54:11;;;;;;;30.10;20.85;;;;;;;;;;5015215;28;20091;-84
2022/05/21 01:56:37;;;;;;;38.05;23.65;;;;;;;;;;5018190;28;20049;-82
2022/05/21 01:59:03;;;;;;;34.10;22.25;;;;;;;;;;5019057;28;20099;-81
2022/05/21 02:01:29;;;;;;;37.13;23.35;;;;;;;;;;5017172;28;20056;-77
2022/05/21 02:03:55;;;;;;;41.83;23.50;;;;;;;;;;5018652;28;20045;-85
2022/05/21 02:06:21;;;;;;;34.60;24.25;;;;;;;;;;4998525;28;20061;-82
2022/05/21 02:08:47;;;;;;;35.95;25.23;;;;;;;;;;5019134;28;20201;-83
2022/05/21 02:11:13;;;;;;;43.17;25.77;;;;;;;;;;5014162;28;20049;-82
2022/05/21 02:13:39;;;;;;;36.55;24.00;;;;;;;;;;5017349;28;20131;-83
2022/05/21 02:16:07;;;;;;;39.67;25.77;;;;;;;;;;5031454;28;20049;-77
2022/05/21 02:18:33;;;;;;;40.40;26.13;;;;;;;;;;5018348;28;20040;-77
2022/05/21 02:20:59;;;;;;;34.13;24.63;;;;;;;;;;4999151;28;20520;-84
2022/05/21 02:23:27;;;;;;;45.60;27.63;;;;;;;;;;5018234;28;21777;-79
2022/05/21 02:25:53;;;;;;;50.92;29.30;;;;;;;;;;5019322;28;20065;-84
2022/05/21 02:28:20;;;;;;;55.20;29.95;;;;;;;;;;5017476;28;20045;-84
2022/05/21 02:30:46;;;;;;;47.92;29.80;;;;;;;;;;5020198;28;20030;-81
2022/05/21 02:33:13;;;;;;;44.42;28.38;;;;;;;;;;5014316;28;20136;-82
2022/05/21 02:35:39;;;;;;;52.20;31.15;;;;;;;;;;5017022;28;20069;-77
2022/05/21 02:40:50;;;;;;;56.10;31.02;;;;;;;;;;5013210;28;20053;-80
2022/05/21 02:43:16;;;;;;;61.88;37.03;;;;;;;;;;5018865;28;20081;-85
2022/05/21 02:45:42;;;;;;;54.80;34.50;;;;;;;;;;5015235;28;20064;-83
2022/05/21 02:48:08;;;;;;;63.20;39.40;;;;;;;;;;5016383;28;20095;-84
2022/05/21 02:50:35;;;;;;;58.42;31.25;;;;;;;;;;4980068;28;20049;-87
2022/05/21 02:53:01;;;;;;;73.13;40.55;;;;;;;;;;5033421;28;20046;-85
2022/05/21 02:55:27;;;;;;;61.70;38.58;;;;;;;;;;5017195;28;20045;-84
2022/05/21 02:57:53;;;;;;;66.93;35.63;;;;;;;;;;5016424;28;20058;-83
2022/05/21 03:00:21;;;;;;;69.22;37.40;;;;;;;;;;5002292;28;20042;-82
2022/05/21 03:02:47;;;;;;;71.13;42.55;;;;;;;;;;5001582;28;20116;-82
2022/05/21 03:05:13;;;;;;;67.97;36.90;;;;;;;;;;4987562;28;20054;-78
2022/05/21 03:07:40;;;;;;;73.10;42.60;;;;;;;;;;5014770;28;20067;-81
2022/05/21 03:10:23;;;;;;;60.92;36.28;;;;;;;;;;5020202;28;20046;-83
2022/05/21 03:12:52;;;;;;;59.55;35.15;;;;;;;;;;5020190;28;20045;-81
2022/05/21 03:15:19;;;;;;;72.03;41.80;;;;;;;;;;5021279;28;20462;-83
2022/05/21 03:17:51;;;;;;;72.13;41.75;;;;;;;;;;5022430;28;20107;-84
2022/05/21 03:20:21;;;;;;;73.97;41.25;;;;;;;;;;5005114;28;20049;-79
2022/05/21 03:22:48;;;;;;;70.65;38.58;;;;;;;;;;5008516;28;20064;-79
2022/05/21 03:25:15;;;;;;;72.13;39.65;;;;;;;;;;5030927;28;20051;-79
2022/05/21 03:27:41;;;;;;;60.72;38.40;;;;;;;;;;5029409;28;20034;-77
2022/05/21 03:30:09;;;;;;;59.38;36.25;;;;;;;;;;5045332;28;20049;-83
2022/05/21 03:32:35;;;;;;;69.05;39.05;;;;;;;;;;5028829;28;20083;-84
2022/05/21 03:35:01;;;;;;;51.53;29.88;;;;;;;;;;5023172;28;20132;-86
2022/05/21 03:37:27;;;;;;;67.43;35.03;;;;;;;;;;5018202;28;20064;-81
2022/05/21 03:39:59;;;;;;;59.88;33.45;;;;;;;;;;5022652;28;20060;-83
2022/05/21 03:42:25;;;;;;;55.92;28.52;;;;;;;;;;5020880;28;20072;-83
2022/05/21 03:44:51;;;;;;;53.65;27.58;;;;;;;;;;5002482;28;20115;-83
2022/05/21 03:47:17;;;;;;;51.75;30.60;;;;;;;;;;5021207;28;20053;-81
2022/05/21 03:49:43;;;;;;;59.80;31.92;;;;;;;;;;5021040;28;20046;-80
2022/05/21 03:52:09;;;;;;;51.53;28.77;;;;;;;;;;5019196;28;20046;-85
2022/05/21 03:54:35;;;;;;;60.42;26.85;;;;;;;;;;5018146;28;20100;-80
2022/05/21 03:57:02;;;;;;;57.08;26.15;;;;;;;;;;5021624;28;20038;-81
2022/05/21 03:59:28;;;;;;;48.53;23.80;;;;;;;;;;5020175;28;20375;-78
2022/05/21 04:01:54;;;;;;;33.67;15.32;;;;;;;;;;5020799;28;20063;-78
2022/05/21 04:04:20;;;;;;;53.33;16.30;;;;;;;;;;5021043;28;20065;-85
2022/05/21 04:06:46;;;;;;;37.05;14.40;;;;;;;;;;5021078;28;20104;-82
2022/05/21 04:09:12;;;;;;;36.90;13.57;;;;;;;;;;5023122;28;20049;-78
2022/05/21 04:11:41;;;;;;;32.40;13.18;;;;;;;;;;5020860;28;20566;-81
2022/05/21 04:14:07;;;;;;;40.35;12.20;;;;;;;;;;5023416;28;20132;-81
2022/05/21 04:16:34;;;;;;;32.05;11.38;;;;;;;;;;5022630;28;20422;-81
2022/05/21 04:19:00;;;;;;;40.17;11.20;;;;;;;;;;5021334;28;20034;-77
2022/05/21 04:21:28;;;;;;;33.58;10.10;;;;;;;;;;5021955;28;21493;-77
2022/05/21 04:23:55;;;;;;;32.50;10.82;;;;;;;;;;5023227;28;20042;-80
2022/05/21 04:26:21;;;;;;;33.00;10.05;;;;;;;;;;5022734;28;20121;-79
2022/05/21 04:28:47;;;;;;;35.88;11.13;;;;;;;;;;5020260;28;20049;-84
2022/05/21 04:31:13;;;;;;;24.17;8.23;;;;;;;;;;5007277;28;20045;-84
2022/05/21 04:33:39;;;;;;;32.30;7.65;;;;;;;;;;5020588;28;20052;-79
2022/05/21 04:36:17;;;;;;;32.53;7.28;;;;;;;;;;5022575;28;20128;-80
2022/05/21 04:38:43;;;;;;;32.33;7.47;;;;;;;;;;5022620;28;20064;-85
2022/05/21 04:41:10;;;;;;;31.30;6.93;;;;;;;;;;5023867;28;20045;-80
2022/05/21 04:43:36;;;;;;;24.08;6.80;;;;;;;;;;5019475;28;20087;-80
2022/05/21 04:46:02;;;;;;;26.85;6.68;;;;;;;;;;5003514;28;20497;-78
2022/05/21 04:48:28;;;;;;;29.55;5.95;;;;;;;;;;5021949;28;20053;-77
2022/05/21 04:50:58;;;;;;;33.58;7.20;;;;;;;;;;5020972;28;20038;-79
2022/05/21 04:53:24;;;;;;;27.83;6.13;;;;;;;;;;5022071;28;20046;-78
2022/05/21 04:55:50;;;;;;;29.00;6.15;;;;;;;;;;5019796;28;20128;-78
2022/05/21 04:58:16;;;;;;;32.75;7.22;;;;;;;;;;5023409;28;20108;-79
2022/05/21 05:00:42;;;;;;;24.08;5.63;;;;;;;;;;5020700;28;20053;-78
2022/05/21 05:03:12;;;;;;;28.42;5.00;;;;;;;;;;5020341;28;20103;-79
2022/05/21 05:05:39;;;;;;;18.48;4.78;;;;;;;;;;5020418;28;20068;-77
2022/05/21 05:08:05;;;;;;;23.75;4.70;;;;;;;;;;5019812;28;20061;-79
2022/05/21 05:10:32;;;;;;;19.42;3.88;;;;;;;;;;5022692;28;20049;-79
2022/05/21 05:12:58;;;;;;;19.50;4.97;;;;;;;;;;5020398;28;20041;-76
2022/05/21 05:15:24;;;;;;;24.90;4.40;;;;;;;;;;5020088;28;20044;-77
2022/05/21 05:17:50;;;;;;;22.33;4.03;;;;;;;;;;5003107;28;20049;-81
2022/05/21 05:20:16;;;;;;;23.92;4.47;;;;;;;;;;5021153;28;20515;-81
2022/05/21 05:22:55;;;;;;;9.55;3.30;;;;;;;;;;5005841;28;20124;-78
2022/05/21 05:25:21;;;;;;;18.00;3.80;;;;;;;;;;5004223;28;20041;-78
2022/05/21 05:27:48;;;;;;;17.83;3.78;;;;;;;;;;5020222;28;20049;-78
2022/05/21 05:30:14;;;;;;;17.15;4.13;;;;;;;;;;5020651;28;20045;-78
2022/05/21 05:32:41;;;;;;;14.18;4.50;;;;;;;;;;5021957;28;20093;-79
2022/05/21 05:35:08;;;;;;;18.85;4.10;;;;;;;;;;5004542;28;20053;-78
2022/05/21 05:37:34;;;;;;;16.50;5.30;;;;;;;;;;5005350;28;20057;-80
2022/05/21 05:40:00;;;;;;;22.02;4.65;;;;;;;;;;5003448;28;20108;-77
2022/05/21 05:42:26;;;;;;;21.58;5.63;;;;;;;;;;5018588;28;20065;-76
2022/05/21 05:44:53;;;;;;;15.10;3.67;;;;;;;;;;5020532;28;20041;-80
2022/05/21 05:47:19;;;;;;;14.88;4.00;;;;;;;;;;5019444;28;20141;-80
2022/05/21 05:49:45;;;;;;;19.00;4.43;;;;;;;;;;5020701;28;20087;-81
2022/05/21 05:52:11;;;;;;;21.35;5.00;;;;;;;;;;5016893;28;20045;-78
2022/05/21 05:54:37;;;;;;;18.17;4.20;;;;;;;;;;5020427;28;20052;-82
2022/05/21 05:57:04;;;;;;;21.08;4.47;;;;;;;;;;5020144;28;20045;-82
2022/05/21 06:05:01;;;;;;;11.63;4.20;;;;;;;;;;5023551;28;20048;-79
2022/05/21 06:07:28;;;;;;;17.77;3.65;;;;;;;;;;5033508;28;20046;-82
2022/05/21 06:09:54;;;;;;;15.45;4.10;;;;;;;;;;5038999;28;20122;-85
2022/05/21 06:12:20;;;;;;;11.40;3.90;;;;;;;;;;5021989;28;20072;-76
2022/05/21 06:14:46;;;;;;;16.20;4.68;;;;;;;;;;5021999;28;20179;-81
2022/05/21 06:17:13;;;;;;;15.43;3.92;;;;;;;;;;5019622;28;20045;-84
2022/05/21 06:19:39;;;;;;;14.15;4.25;;;;;;;;;;5019238;28;20143;-83
2022/05/21 06:22:05;;;;;;;17.48;3.95;;;;;;;;;;5020443;28;20088;-82
2022/05/21 06:24:36;;;;;;;18.35;4.03;;;;;;;;;;5018062;28;20059;-79
2022/05/21 06:27:02;;;;;;;17.48;3.95;;;;;;;;;;5000761;28;20570;-81
2022/05/21 06:29:28;;;;;;;22.27;4.78;;;;;;;;;;5020083;28;20366;-82
2022/05/21 06:31:54;;;;;;;17.85;4.43;;;;;;;;;;5019759;28;20045;-82
2022/05/21 06:34:20;;;;;;;16.15;4.35;;;;;;;;;;5021260;28;20184;-81
2022/05/21 06:36:46;;;;;;;15.27;3.92;;;;;;;;;;5019317;28;20064;-81
2022/05/21 06:39:12;;;;;;;18.88;4.18;;;;;;;;;;5022299;28;20053;-79
2022/05/21 06:41:39;;;;;;;22.92;4.57;;;;;;;;;;5022377;28;20120;-85
2022/05/21 06:44:05;;;;;;;18.85;4.15;;;;;;;;;;5006617;28;20084;-87
2022/05/21 06:46:31;;;;;;;19.23;5.22;;;;;;;;;;5007611;28;20041;-86
2022/05/21 06:48:57;;;;;;;14.52;4.28;;;;;;;;;;5007261;28;20962;-85
2022/05/21 06:51:23;;;;;;;17.05;4.50;;;;;;;;;;5021845;28;20412;-82
2022/05/21 06:53:49;;;;;;;13.57;3.67;;;;;;;;;;5025611;28;20045;-82
2022/05/21 06:56:16;;;;;;;20.40;4.28;;;;;;;;;;5023293;28;20049;-86
2022/05/21 06:58:43;;;;;;;13.95;4.00;;;;;;;;;;5025837;28;20033;-81
2022/05/21 07:01:10;;;;;;;16.65;3.70;;;;;;;;;;5026279;28;20069;-81
2022/05/21 07:03:37;;;;;;;21.77;4.55;;;;;;;;;;5024607;28;20076;-84
2022/05/21 07:08:52;;;;;;;20.52;4.30;;;;;;;;;;5020714;28;20470;-82
2022/05/21 07:11:18;;;;;;;18.55;3.45;;;;;;;;;;5035870;22;20398;-81
2022/05/21 07:13:44;;;;;;;16.67;3.35;;;;;;;;;;4992143;28;20080;-83
2022/05/21 07:16:10;;;;;;;17.85;3.63;;;;;;;;;;4997359;28;20155;-82
2022/05/21 07:18:37;;;;;;;14.20;3.17;;;;;;;;;;5012301;28;20550;-82
2022/05/21 07:21:03;;;;;;;11.52;3.10;;;;;;;;;;4980833;28;20111;-85
2022/05/21 07:23:30;;;;;;;15.43;3.28;;;;;;;;;;4992489;28;20061;-81
2022/05/21 07:25:56;;;;;;;12.48;2.95;;;;;;;;;;5037589;28;20045;-81
2022/05/21 07:28:28;;;;;;;16.42;3.85;;;;;;;;;;5038932;28;20045;-81
2022/05/21 07:30:56;;;;;;;11.82;2.80;;;;;;;;;;4992285;28;20034;-84
2022/05/21 07:33:22;;;;;;;16.17;3.28;;;;;;;;;;5037291;28;20045;-87
2022/05/21 07:35:53;;;;;;;16.02;3.50;;;;;;;;;;5030426;28;20067;-83
2022/05/21 07:38:20;;;;;;;20.40;3.85;;;;;;;;;;4982836;28;20045;-87
2022/05/21 07:40:47;;;;;;;13.30;3.38;;;;;;;;;;5030332;28;20037;-83
2022/05/21 07:43:14;;;;;;;18.10;3.75;;;;;;;;;;5024438;28;20561;-88
2022/05/21 07:45:44;;;;;;;14.23;2.63;;;;;;;;;;5013336;28;20382;-84
2022/05/21 07:48:12;;;;;;;16.13;3.13;;;;;;;;;;5030852;28;20049;-83
2022/05/21 07:50:41;;;;;;;16.00;3.17;;;;;;;;;;4985792;28;20046;-86
2022/05/21 07:53:18;;;;;;;15.05;4.03;;;;;;;;;;5009187;28;20064;-85
2022/05/21 07:55:46;;;;;;;12.18;3.13;;;;;;;;;;5019699;28;20033;-90
2022/05/21 07:58:12;;;;;;;11.82;3.08;;;;;;;;;;5028629;28;20046;-87
2022/05/21 08:00:41;;;;;;;15.18;3.53;;;;;;;;;;5028239;28;20038;-82
2022/05/21 08:03:10;;;;;;;16.35;3.75;;;;;;;;;;5028878;28;20049;-85
2022/05/21 08:05:43;;;;;;;11.25;2.75;;;;;;;;;;5015468;28;20041;-83
2022/05/21 08:08:29;;;;;;;15.90;3.23;;;;;;;;;;5009211;28;20502;-82
2022/05/21 08:11:15;;;;;;;15.43;3.05;;;;;;;;;;4983250;28;20061;-85
2022/05/21 08:13:41;;;;;;;12.82;3.47;;;;;;;;;;4998612;28;20049;-85
2022/05/21 08:16:07;;;;;;;10.90;2.97;;;;;;;;;;4975608;28;20044;-87
2022/05/21 08:18:34;;;;;;;15.18;3.10;;;;;;;;;;5028938;28;20049;-88
2022/05/21 08:21:00;;;;;;;14.40;3.58;;;;;;;;;;5006186;28;20033;-83
2022/05/21 08:28:57;;;;;;;13.57;2.80;;;;;;;;;;5029151;28;20052;-84
2022/05/21 08:31:23;;;;;;;17.50;3.45;;;;;;;;;;5003834;28;20037;-88
2022/05/21 08:33:49;;;;;;;15.27;3.10;;;;;;;;;;5027438;28;20041;-81
2022/05/21 08:36:15;;;;;;;14.35;2.90;;;;;;;;;;5033089;28;20069;-82
2022/05/21 08:38:41;;;;;;;10.38;2.10;;;;;;;;;;5001318;28;20482;-82
2022/05/21 08:41:25;;;;;;;12.65;2.58;;;;;;;;;;4994859;28;20044;-83
2022/05/21 08:44:04;;;;;;;10.00;2.88;;;;;;;;;;5026546;28;20056;-84
2022/05/21 08:47:00;;;;;;;17.63;3.65;;;;;;;;;;5010742;28;20045;-82
2022/05/21 08:49:38;;;;;;;12.80;2.88;;;;;;;;;;5003024;28;20085;-85
2022/05/21 08:52:14;;;;;;;11.18;3.17;;;;;;;;;;5027063;28;20048;-85
2022/05/21 08:54:45;;;;;;;15.98;3.25;;;;;;;;;;5028867;28;20627;-86
2022/05/21 08:57:31;;;;;;;18.92;2.90;;;;;;;;;;5027612;28;20041;-81
2022/05/21 09:00:03;;;;;;;18.35;3.08;;;;;;;;;;4994972;28;20167;-85
2022/05/21 09:02:39;;;;;;;13.13;2.63;;;;;;;;;;5027839;28;20056;-87
2022/05/21 09:05:07;;;;;;;17.17;3.08;;;;;;;;;;4977270;28;20080;-88
2022/05/21 09:07:45;;;;;;;12.23;2.85;;;;;;;;;;5007791;28;20598;-87
2022/05/21 09:10:19;;;;;;;13.80;2.88;;;;;;;;;;5007021;28;20068;-84
2022/05/21 09:13:04;;;;;;;12.75;3.03;;;;;;;;;;5023869;28;20053;-85
2022/05/21 09:18:15;;;;;;;12.15;3.08;;;;;;;;;;5027527;28;20042;-86
2022/05/21 09:20:58;;;;;;;13.43;2.83;;;;;;;;;;5020942;28;20121;-89
2022/05/21 09:23:25;;;;;;;13.25;3.20;;;;;;;;;;5017357;28;20076;-83
2022/05/21 09:26:05;;;;;;;13.15;3.22;;;;;;;;;;5020530;28;20143;-89
2022/05/21 09:28:32;;;;;;;13.43;2.97;;;;;;;;;;5020096;28;20050;-83
2022/05/21 09:30:58;;;;;;;13.52;2.92;;;;;;;;;;5019343;28;20035;-83
2022/05/21 09:33:26;;;;;;;15.13;3.00;;;;;;;;;;5021633;28;20482;-85
2022/05/21 09:35:54;;;;;;;23.15;3.75;;;;;;;;;;5016873;28;20107;-85
2022/05/21 09:38:35;;;;;;;17.50;3.10;;;;;;;;;;5020297;28;20049;-90
2022/05/21 09:41:08;;;;;;;16.08;3.25;;;;;;;;;;5004592;28;20045;-86
2022/05/21 09:46:31;;;;;;;17.40;3.72;;;;;;;;;;5023767;28;20052;-84
2022/05/21 09:49:16;;;;;;;12.48;2.58;;;;;;;;;;5024294;28;20057;-88
2022/05/21 09:51:54;;;;;;;13.40;2.72;;;;;;;;;;5008003;28;20132;-90
2022/05/21 09:54:46;;;;;;;9.85;2.60;;;;;;;;;;5025040;28;20083;-87
2022/05/21 09:57:30;;;;;;;13.77;3.53;;;;;;;;;;5009897;28;20104;-90
2022/05/21 10:00:06;;;;;;;16.23;2.92;;;;;;;;;;5024567;28;20033;-85
2022/05/21 10:02:39;;;;;;;12.93;2.85;;;;;;;;;;5027980;28;20045;-88
2022/05/21 10:05:08;;;;;;;8.40;2.22;;;;;;;;;;5021663;28;20113;-89
2022/05/21 10:10:59;;;;;;;12.82;2.85;;;;;;;;;;5020556;28;20046;-86
2022/05/21 10:13:48;;;;;;;13.93;2.80;;;;;;;;;;5021657;28;20085;-85
2022/05/21 10:16:25;;;;;;;12.23;2.70;;;;;;;;;;4987691;28;20562;-84
2022/05/21 10:18:55;;;;;;;13.38;2.22;;;;;;;;;;5020065;28;20085;-82
2022/05/21 10:21:21;;;;;;;13.10;2.47;;;;;;;;;;5023441;28;20059;-87
2022/05/21 10:23:50;;;;;;;14.85;3.25;;;;;;;;;;5006369;28;20045;-87
2022/05/21 10:26:25;;;;;;;14.25;2.78;;;;;;;;;;4998509;28;20053;-89
2022/05/21 10:28:54;;;;;;;11.50;2.67;;;;;;;;;;5021140;28;20076;-85
2022/05/21 10:31:31;;;;;;;9.93;2.10;;;;;;;;;;5021542;28;20033;-87
2022/05/21 10:34:41;;;;;;;14.77;2.88;;;17.50;99.90;;;;;;5025335;28;20128;-83
2022/05/21 10:37:18;;;;;;;12.48;2.47;;;;;;;;;;5025869;28;20041;-86
2022/05/21 10:39:57;;;;;;;12.27;2.85;;;;;;;;;;5023029;28;20037;-90
2022/05/21 10:42:29;;;;;;;12.77;3.83;;;;;;;;;;5034548;28;20068;-89
2022/05/21 10:44:55;;;;;;;13.23;4.00;;;;;;;;;;5043062;28;20038;-86
2022/05/21 10:47:27;;;;;;;15.60;3.75;;;;;;;;;;5047691;28;20044;-88
2022/05/21 10:50:27;;;;;;;21.20;3.97;;;17.30;99.90;;;;;;5045265;28;20042;-83
2022/05/21 10:53:03;;;;;;;15.63;3.40;;;;;;;;;;5028759;28;20052;-84
2022/05/21 10:55:34;;;;;;;13.40;3.28;;;;;;;;;;5025619;28;20144;-82
2022/05/21 10:58:01;;;;;;;18.02;3.10;;;;;;;;;;5024649;28;20125;-85
2022/05/21 11:00:43;;;;;;;12.38;2.80;;;;;;;;;;5018991;28;20073;-86
2022/05/21 11:03:09;;;;;;;16.30;3.22;;;;;;;;;;4982920;28;20066;-88
2022/05/21 11:05:54;;;;;;;18.85;4.22;;;;;;;;;;4951322;28;20046;-90
2022/05/21 11:08:28;;;;;;;17.02;4.47;;;;;;;;;;4972158;28;20086;-84
2022/05/21 11:11:03;;;;;;;13.90;2.72;;;;;;;;;;4968482;28;20039;-83
2022/05/21 11:13:34;;;;;;;12.15;3.22;;;;;;;;;;4968510;28;20046;-83
2022/05/21 11:16:12;;;;;;;12.45;2.63;;;;;;;;;;4984466;28;20052;-83
2022/05/21 11:19:01;;;;;;;14.32;3.53;;;;;;;;;;4983695;28;20089;-82
2022/05/21 11:21:48;;;;;;;12.10;3.58;;;;;;;;;;4958894;28;20057;-84
2022/05/21 11:24:34;;;;;;;10.13;2.03;;;;;;;;;;4969892;28;20098;-81
2022/05/21 11:27:06;;;;;;;10.88;2.65;;;;;;;;;;4969785;28;20206;-84
2022/05/21 11:29:42;;;;;;;13.50;3.38;;;;;;;;;;4969282;28;20173;-80
2022/05/21 11:37:51;;;;;;;11.75;3.10;;;;;;;;;;5026461;28;20045;-83
2022/05/21 11:41:24;;;;;;;8.35;2.40;;;;;;;;;;5009821;28;20779;-84
2022/05/21 11:43:57;;;;;;;9.20;2.38;;;;;;;;;;4950288;28;20053;-82
2022/05/21 11:46:41;;;;;;;10.95;2.15;;;;;;;;;;4949174;28;20582;-86
2022/05/21 11:49:30;;;;;;;15.07;3.17;;;;;;;;;;5016404;28;20498;-85
2022/05/21 11:52:00;;;;;;;13.82;3.33;;;;;;;;;;5019370;28;20053;-84
2022/05/21 11:54:45;;;;;;;10.02;3.28;;;;;;;;;;5008955;28;20116;-81
2022/05/21 11:57:29;;;;;;;14.80;2.92;;;;;;;;;;5026913;28;20489;-82
2022/05/21 11:59:56;;;;;;;11.13;2.95;;;;;;;;;;5020420;28;20550;-86
2022/05/21 12:02:26;;;;;;;13.40;3.10;;;;;;;;;;5028008;28;20042;-85
2022/05/21 12:05:10;;;;;;;11.85;3.05;;;;;;;;;;5012231;28;20060;-83
2022/05/21 12:07:46;;;;;;;11.32;2.63;;;;;;;;;;5024901;28;20041;-81
2022/05/21 12:10:19;;;;;;;13.23;2.90;;;;;;;;;;5026015;28;20760;-83
2022/05/21 12:13:05;;;;;;;18.20;3.95;;;;;;;;;;5026196;28;20121;-83
2022/05/21 12:15:43;;;;;;;10.23;2.50;;;;;;;;;;5010539;28;20156;-83
2022/05/21 12:18:29;;;;;;;17.05;3.30;;;;;;;;;;5024622;28;20038;-82
2022/05/21 12:20:55;;;;;;;7.72;2.88;;;;;;;;;;5009991;28;20055;-83
2022/05/21 12:23:34;;;;;;;11.13;2.80;;;;;;;;;;5027376;28;20065;-81
2022/05/21 12:26:02;;;;;;;13.73;2.90;;;;;;;;;;5027476;28;20521;-83
2022/05/21 12:28:46;;;;;;;8.02;2.60;;;;;;;;;;5027931;28;20052;-81
2022/05/21 12:31:14;;;;;;;12.40;2.50;;;;;;;;;;4990752;28;20050;-82
2022/05/21 12:33:44;;;;;;;13.35;2.53;;;;;;;;;;5007546;28;20045;-79
2022/05/21 12:36:20;;;;;;;16.38;3.47;;;;;;;;;;4991186;28;20154;-83
2022/05/21 12:38:47;;;;;;;11.65;3.10;;;;;;;;;;5005562;28;20096;-83
2022/05/21 12:41:35;;;;;;;10.27;2.58;;;;;;;;;;5009551;28;20133;-83
2022/05/21 12:44:11;;;;;;;9.70;2.60;;;;;;;;;;5026233;28;20044;-80
2022/05/21 12:46:49;;;;;;;16.55;2.83;;;;;;;;;;5008157;28;20045;-81
2022/05/21 12:49:21;;;;;;;13.52;3.63;;;;;;;;;;5026978;28;20077;-82
2022/05/21 12:51:49;;;;;;;11.07;2.67;;;;;;;;;;5025576;28;20106;-81
2022/05/21 12:54:24;;;;;;;16.33;2.92;;;;;;;;;;5027773;28;20103;-79
2022/05/21 12:56:50;;;;;;;8.82;2.28;;;;;;;;;;5026640;28;20132;-81
2022/05/21 12:59:18;;;;;;;10.82;3.20;;;;;;;;;;5027110;28;20534;-81
2022/05/21 13:01:57;;;;;;;10.57;2.50;;;;;;;;;;5009517;28;20390;-79
2022/05/21 13:04:38;;;;;;;5.88;1.98;;;;;;;;;;5126591;27;20512;-80
2022/05/21 13:07:20;;;;;;;12.45;3.05;;;;;;;;;;5126248;27;20135;-82
2022/05/21 13:09:57;;;;;;;14.73;2.83;;;;;;;;;;5126197;28;20134;-80
2022/05/21 13:12:24;;;;;;;7.20;2.08;;;;;;;;;;5126962;27;20487;-80
2022/05/21 13:14:51;;;;;;;10.60;2.83;;;;;;;;;;5125143;27;20039;-84
2022/05/21 13:17:24;;;;;;;12.95;2.28;;;;;;;;;;5126244;28;20173;-83
2022/05/21 13:19:55;;;;;;;11.13;2.55;;;;;;;;;;5125810;28;20465;-84
2022/05/21 13:22:39;;;;;;;11.98;2.50;;;;;;;;;;5126813;27;20417;-82
2022/05/21 13:25:06;;;;;;;11.15;1.98;;;;;;;;;;5142832;27;20039;-82
2022/05/21 13:27:49;;;;;;;7.43;2.42;;;;;;;;;;5125740;27;20044;-81
2022/05/21 13:30:35;;;;;;;10.65;1.95;;;;;;;;;;5155979;27;20038;-83
2022/05/21 13:33:02;;;;;;;9.98;2.78;;;;;;;;;;5149106;27;20054;-83
2022/05/21 13:35:33;;;;;;;10.77;2.42;;;;;;;;;;5148983;27;20077;-82
2022/05/21 13:38:01;;;;;;;8.10;2.42;;;;;;;;;;5146557;27;20051;-84
2022/05/21 13:40:29;;;;;;;8.98;2.20;;;;;;;;;;5146395;27;20058;-83
2022/05/21 13:43:01;;;;;;;8.90;2.53;;;;;;;;;;5147269;27;20035;-82
2022/05/21 13:45:29;;;;;;;10.77;2.60;;;;;;;;;;5111822;28;20431;-84
2022/05/21 13:47:58;;;;;;;15.02;2.65;;;;;;;;;;5125967;28;20042;-84
2022/05/21 13:50:26;;;;;;;11.00;2.47;;;;;;;;;;5124437;28;20391;-84
2022/05/21 13:52:52;;;;;;;9.38;2.28;;;;;;;;;;5126077;28;20491;-83
2022/05/21 13:55:19;;;;;;;10.73;2.53;;;;;;;;;;5124896;28;20039;-84
2022/05/21 13:57:45;;;;;;;11.38;2.50;;;;;;;;;;5125537;28;20511;-84
2022/05/21 14:00:16;;;;;;;9.20;2.40;;;;;;;;;;5122423;27;20050;-83
2022/05/21 14:02:48;;;;;;;11.40;2.70;;;;;;;;;;5124512;27;20528;-84
2022/05/21 14:05:29;;;;;;;8.48;2.33;;;;;;;;;;5123541;27;20055;-84
2022/05/21 14:08:09;;;;;;;11.77;2.97;;;;;;;;;;5123105;28;20107;-82
2022/05/21 14:10:38;;;;;;;10.63;3.15;;;;;;;;;;5123099;27;20038;-84
2022/05/21 14:13:06;;;;;;;14.43;3.13;;;;;;;;;;5123665;27;20080;-81
2022/05/21 14:15:44;;;;;;;8.95;2.33;;;;;;;;;;5110224;28;20058;-83
2022/05/21 14:18:10;;;;;;;11.15;3.10;;;;;;;;;;5107677;28;20055;-82
2022/05/21 14:20:38;;;;;;;7.43;2.28;;;;;;;;;;5104230;27;21826;-84
2022/05/21 14:23:23;;;;;;;12.95;2.30;;;;;;;;;;5104564;27;20131;-83
2022/05/21 14:25:49;;;;;;;9.75;2.33;;;;;;;;;;5104331;27;20479;-82
2022/05/21 14:28:15;;;;;;;10.35;2.80;;;;;;;;;;5102099;28;20120;-80
2022/05/21 14:30:46;;;;;;;11.55;2.83;;;;;;;;;;5084161;27;20039;-81
2022/05/21 14:33:12;;;;;;;11.10;2.75;;;;;;;;;;5102613;27;20108;-81
2022/05/21 14:35:38;;;;;;;8.48;2.13;;;;;;;;;;5103455;27;20039;-82
2022/05/21 14:38:05;;;;;;;11.75;2.60;;;;;;;;;;5107736;28;20127;-82
2022/05/21 14:41:03;;;;;;;12.95;2.58;;;;;;;;;;5104109;27;20044;-83
2022/05/21 14:43:36;;;;;;;16.63;2.85;;;;;;;;;;5061739;28;20484;-82
2022/05/21 14:46:03;;;;;;;12.85;3.05;;;;;;;;;;5102970;27;21251;-83
2022/05/21 14:48:29;;;;;;;13.63;2.83;;;;;;;;;;5100652;28;20035;-82
2022/05/21 14:53:48;;;;;;;13.57;2.65;;;;;;;;;;5104025;28;20368;-81
2022/05/21 14:56:14;;;;;;;;;;;;;;;;;;5108736;28;20043;-82
2022/05/21 14:58:40;;;;;;;13.23;3.20;;;;;;;;;;5107663;28;20596;-81
2022/05/21 15:01:06;;;;;;;13.45;3.25;;;;;;;;;;5107682;28;20050;-81
2022/05/21 15:03:32;;;;;;;13.23;2.92;;;;;;;;;;5102375;28;20055;-80
2022/05/21 15:05:58;;;;;;;13.00;3.78;;;;;;;;;;5103221;27;20032;-81
2022/05/21 15:11:49;;;;;;;16.13;3.58;;;;;;;;;;5109029;27;20193;-81
2022/05/21 15:14:15;;;;;;;10.75;2.40;;;;;;;;;;5086047;27;20043;-80
2022/05/21 15:16:41;;;;;;;16.90;3.50;;;;;;;;;;5103663;28;20495;-83
2022/05/21 15:19:08;;;;;;;17.30;3.83;;;;;;;;;;5101630;27;20044;-82
2022/05/21 15:21:35;;;;;;;14.68;3.20;;;;;;;;;;5100308;27;20122;-82
2022/05/21 15:24:02;;;;;;;14.60;3.03;;;;;;;;;;5101594;28;20131;-81
2022/05/21 15:26:29;;;;;;;10.35;2.97;;;;;;;;;;5099651;28;20419;-80